Wetterdaten: Montag, 05.11.2007
Datum Zeit Temp. A. Feuchte A. Luftdruck Regen Wind Richtung Richtung Sonnenschein UV Solar Windben
05.11.2007 00:00 7,6 C 89 % 1028,1 hPa 0,0 mm 0,0 km/h (0 Bft) N 0 0 min 0 UV-I 0 W/m 0,0 km/h (0 Bft)
05.11.2007 00:10 7,6 C 89 % 1028,2 hPa 0,0 mm 0,0 km/h (0 Bft) N 0 0 min 0 UV-I 0 W/m 0,0 km/h (0 Bft)
05.11.2007 00:20 7,6 C 89 % 1028,2 hPa 0,0 mm 0,0 km/h (0 Bft) W-NW 292 0 min 0 UV-I 0 W/m 1,6 km/h (1 Bft)
05.11.2007 00:30 7,5 C 89 % 1028,2 hPa 0,0 mm 0,0 km/h (0 Bft) W-NW 292 0 min 0 UV-I 0 W/m 1,6 km/h (1 Bft)
05.11.2007 00:40 7,5 C 89 % 1028,2 hPa 0,0 mm 0,0 km/h (0 Bft) W-NW 292 0 min 0 UV-I 0 W/m 1,6 km/h (1 Bft)
05.11.2007 00:50 7,5 C 90 % 1028,1 hPa 0,0 mm 0,0 km/h (0 Bft) W-NW 292 0 min 0 UV-I 0 W/m 1,6 km/h (1 Bft)
05.11.2007 01:00 7,4 C 90 % 1028,1 hPa 0,0 mm 0,0 km/h (0 Bft) W-NW 292 0 min 0 UV-I 0 W/m 1,6 km/h (1 Bft)
05.11.2007 01:10 7,4 C 90 % 1028,1 hPa 0,0 mm 0,0 km/h (0 Bft) N 0 0 min 0 UV-I 0 W/m 0,0 km/h (0 Bft)
05.11.2007 01:20 7,4 C 90 % 1028,1 hPa 0,0 mm 0,0 km/h (0 Bft) W-NW 292 0 min 0 UV-I 0 W/m 1,6 km/h (1 Bft)
05.11.2007 01:30 7,4 C 90 % 1028,1 hPa 0,0 mm 0,0 km/h (0 Bft) W-NW 292 0 min 0 UV-I 0 W/m 1,6 km/h (1 Bft)
05.11.2007 01:40 7,4 C 90 % 1028,1 hPa 0,0 mm 0,0 km/h (0 Bft) N 0 0 min 0 UV-I 0 W/m 0,0 km/h (0 Bft)
05.11.2007 01:50 7,4 C 90 % 1028,1 hPa 0,0 mm 0,0 km/h (0 Bft) N 0 0 min 0 UV-I 0 W/m 0,0 km/h (0 Bft)
05.11.2007 02:00 7,4 C 90 % 1028,1 hPa 0,0 mm 0,0 km/h (0 Bft) W-NW 292 0 min 0 UV-I 0 W/m 1,6 km/h (1 Bft)
05.11.2007 02:10 7,4 C 90 % 1028,1 hPa 0,0 mm 0,0 km/h (0 Bft) W-NW 292 0 min 0 UV-I 0 W/m 3,2 km/h (1 Bft)
05.11.2007 02:20 7,4 C 90 % 1028,1 hPa 0,0 mm 0,0 km/h (0 Bft) N 0 0 min 0 UV-I 0 W/m 0,0 km/h (0 Bft)
05.11.2007 02:30 7,4 C 90 % 1028,1 hPa 0,0 mm 0,0 km/h (0 Bft) N 0 0 min 0 UV-I 0 W/m 0,0 km/h (0 Bft)
05.11.2007 02:40 7,4 C 90 % 1028,0 hPa 0,0 mm 0,0 km/h (0 Bft) W-NW 292 0 min 0 UV-I 0 W/m 1,6 km/h (1 Bft)
05.11.2007 02:50 7,4 C 91 % 1028,0 hPa 0,0 mm 0,0 km/h (0 Bft) N 0 0 min 0 UV-I 0 W/m 0,0 km/h (0 Bft)
05.11.2007 03:00 7,4 C 90 % 1028,0 hPa 0,0 mm 0,0 km/h (0 Bft) N 0 0 min 0 UV-I 0 W/m 0,0 km/h (0 Bft)
05.11.2007 03:10 7,4 C 91 % 1027,9 hPa 0,0 mm 0,0 km/h (0 Bft) W-NW 292 0 min 0 UV-I 0 W/m 3,2 km/h (1 Bft)
05.11.2007 03:20 7,4 C 91 % 1028,0 hPa 0,0 mm 0,0 km/h (0 Bft) W-NW 292 0 min 0 UV-I 0 W/m 3,2 km/h (1 Bft)
05.11.2007 03:30 7,4 C 91 % 1028,0 hPa 0,0 mm 0,0 km/h (0 Bft) W-NW 292 0 min 0 UV-I 0 W/m 1,6 km/h (1 Bft)
05.11.2007 03:40 7,4 C 91 % 1027,9 hPa 0,0 mm 0,0 km/h (0 Bft) N 0 0 min 0 UV-I 0 W/m 0,0 km/h (0 Bft)
05.11.2007 03:50 7,4 C 91 % 1027,9 hPa 0,0 mm 0,0 km/h (0 Bft) N 0 0 min 0 UV-I 0 W/m 0,0 km/h (0 Bft)
05.11.2007 04:00 7,4 C 91 % 1027,9 hPa 0,0 mm 0,0 km/h (0 Bft) W-NW 292 0 min 0 UV-I 0 W/m 1,6 km/h (1 Bft)
05.11.2007 04:10 7,3 C 91 % 1027,8 hPa 0,0 mm 0,0 km/h (0 Bft) W-NW 292 0 min 0 UV-I 0 W/m 1,6 km/h (1 Bft)
05.11.2007 04:20 7,3 C 91 % 1027,9 hPa 0,0 mm 0,0 km/h (0 Bft) N 0 0 min 0 UV-I 0 W/m 0,0 km/h (0 Bft)
05.11.2007 04:30 7,3 C 91 % 1027,9 hPa 0,0 mm 0,0 km/h (0 Bft) W-NW 292 0 min 0 UV-I 0 W/m 3,2 km/h (1 Bft)
05.11.2007 04:40 7,3 C 91 % 1027,9 hPa 0,0 mm 0,0 km/h (0 Bft) W-NW 292 0 min 0 UV-I 0 W/m 3,2 km/h (1 Bft)
05.11.2007 04:50 7,3 C 91 % 1027,8 hPa 0,0 mm 0,0 km/h (0 Bft) W-NW 292 0 min 0 UV-I 0 W/m 1,6 km/h (1 Bft)
05.11.2007 05:00 7,2 C 91 % 1027,8 hPa 0,0 mm 0,0 km/h (0 Bft) W-NW 292 0 min 0 UV-I 0 W/m 3,2 km/h (1 Bft)
05.11.2007 05:10 7,2 C 91 % 1027,9 hPa 0,0 mm 0,0 km/h (0 Bft) W-NW 292 0 min 0 UV-I 0 W/m 1,6 km/h (1 Bft)
05.11.2007 05:20 7,2 C 91 % 1027,8 hPa 0,0 mm 0,0 km/h (0 Bft) W-NW 292 0 min 0 UV-I 0 W/m 1,6 km/h (1 Bft)
05.11.2007 05:30 7,2 C 91 % 1027,9 hPa 0,0 mm 0,0 km/h (0 Bft) N 0 0 min 0 UV-I 0 W/m 0,0 km/h (0 Bft)
05.11.2007 05:40 7,2 C 91 % 1027,8 hPa 0,0 mm 0,0 km/h (0 Bft) N 0 0 min 0 UV-I 0 W/m 0,0 km/h (0 Bft)
05.11.2007 05:50 7,2 C 91 % 1027,9 hPa 0,0 mm 0,0 km/h (0 Bft) W-NW 292 0 min 0 UV-I 0 W/m 1,6 km/h (1 Bft)
05.11.2007 06:00 7,2 C 91 % 1027,9 hPa 0,0 mm 0,0 km/h (0 Bft) W-NW 292 0 min 0 UV-I 0 W/m 1,6 km/h (1 Bft)
05.11.2007 06:10 7,2 C 91 % 1027,8 hPa 0,0 mm 0,0 km/h (0 Bft) N 0 0 min 0 UV-I 0 W/m 0,0 km/h (0 Bft)
05.11.2007 06:20 7,2 C 91 % 1027,8 hPa 0,0 mm 0,0 km/h (0 Bft) N 0 0 min 0 UV-I 0 W/m 0,0 km/h (0 Bft)
05.11.2007 06:30 7,2 C 91 % 1027,8 hPa 0,0 mm 0,0 km/h (0 Bft) W-NW 292 0 min 0 UV-I 0 W/m 1,6 km/h (1 Bft)
05.11.2007 06:40 7,2 C 91 % 1027,7 hPa 0,0 mm 0,0 km/h (0 Bft) W-NW 292 0 min 0 UV-I 0 W/m 1,6 km/h (1 Bft)
05.11.2007 06:50 7,2 C 91 % 1027,7 hPa 0,0 mm 0,0 km/h (0 Bft) N 0 0 min 0 UV-I 0 W/m 0,0 km/h (0 Bft)
05.11.2007 07:00 7,2 C 91 % 1027,7 hPa 0,0 mm 0,0 km/h (0 Bft) N 0 0 min 0 UV-I 0 W/m 0,0 km/h (0 Bft)
05.11.2007 07:10 7,1 C 91 % 1027,7 hPa 0,0 mm 0,0 km/h (0 Bft) N 0 0 min 0 UV-I 0 W/m 0,0 km/h (0 Bft)
05.11.2007 07:20 7,1 C 91 % 1027,8 hPa 0,0 mm 0,0 km/h (0 Bft) N 0 0 min 0 UV-I 0 W/m 0,0 km/h (0 Bft)
05.11.2007 07:30 7,1 C 91 % 1027,8 hPa 0,0 mm 0,0 km/h (0 Bft) W-NW 292 0 min 0 UV-I 0 W/m 1,6 km/h (1 Bft)
05.11.2007 07:40 7,1 C 91 % 1027,8 hPa 0,0 mm 0,0 km/h (0 Bft) W-NW 292 0 min 0 UV-I 0 W/m 3,2 km/h (1 Bft)
05.11.2007 07:50 7,1 C 91 % 1027,8 hPa 0,0 mm 0,0 km/h (0 Bft) W-NW 292 0 min 0 UV-I 0 W/m 1,6 km/h (1 Bft)
05.11.2007 08:00 7,1 C 91 % 1027,9 hPa 0,0 mm 0,0 km/h (0 Bft) W-NW 292 0 min 0 UV-I 7 W/m 3,2 km/h (1 Bft)
05.11.2007 08:10 7,1 C 91 % 1028,0 hPa 0,0 mm 0,0 km/h (0 Bft) W-NW 292 0 min 0 UV-I 11 W/m 1,6 km/h (1 Bft)
05.11.2007 08:20 7,1 C 91 % 1027,9 hPa 0,0 mm 0,0 km/h (0 Bft) N 0 0 min 0 UV-I 14 W/m 0,0 km/h (0 Bft)
05.11.2007 08:30 7,1 C 91 % 1028,0 hPa 0,0 mm 0,0 km/h (0 Bft) N 0 0 min 0 UV-I 18 W/m 0,0 km/h (0 Bft)
05.11.2007 08:40 7,1 C 91 % 1028,0 hPa 0,0 mm 0,0 km/h (0 Bft) W-NW 292 0 min 0 UV-I 21 W/m 4,8 km/h (1 Bft)
05.11.2007 08:50 7,1 C 90 % 1028,0 hPa 0,0 mm 0,0 km/h (0 Bft) W-SW 247 0 min 0 UV-I 26 W/m 1,6 km/h (1 Bft)
05.11.2007 09:00 7,1 C 90 % 1027,9 hPa 0,0 mm 0,0 km/h (0 Bft) W-SW 247 0 min 0 UV-I 30 W/m 1,6 km/h (1 Bft)
05.11.2007 09:10 7,1 C 89 % 1027,9 hPa 0,0 mm 0,0 km/h (0 Bft) W-SW 247 0 min 0 UV-I 35 W/m 1,6 km/h (1 Bft)
05.11.2007 09:20 7,2 C 89 % 1027,9 hPa 0,0 mm 0,0 km/h (0 Bft) W-SW 247 0 min 0 UV-I 39 W/m 1,6 km/h (1 Bft)
05.11.2007 09:30 7,2 C 88 % 1028,0 hPa 0,0 mm 0,0 km/h (0 Bft) W-SW 247 0 min 0 UV-I 39 W/m 3,2 km/h (1 Bft)
05.11.2007 09:40 7,3 C 87 % 1027,9 hPa 0,0 mm 0,0 km/h (0 Bft) SW 225 0 min 0 UV-I 42 W/m 3,2 km/h (1 Bft)
05.11.2007 09:50 7,4 C 87 % 1028,0 hPa 0,0 mm 0,0 km/h (0 Bft) SW 225 0 min 0 UV-I 42 W/m 1,6 km/h (1 Bft)
05.11.2007 10:00 7,5 C 86 % 1027,8 hPa 0,0 mm 0,0 km/h (0 Bft) SW 225 0 min 0 UV-I 40 W/m 3,2 km/h (1 Bft)
05.11.2007 10:10 7,6 C 86 % 1027,9 hPa 0,0 mm 0,0 km/h (0 Bft) SW 225 0 min 0 UV-I 35 W/m 3,2 km/h (1 Bft)
05.11.2007 10:20 7,7 C 85 % 1027,8 hPa 0,0 mm 0,0 km/h (0 Bft) SW 225 0 min 0 UV-I 39 W/m 3,2 km/h (1 Bft)
05.11.2007 10:30 7,8 C 85 % 1027,8 hPa 0,0 mm 0,0 km/h (0 Bft) SW 225 0 min 0 UV-I 42 W/m 3,2 km/h (1 Bft)
05.11.2007 10:40 7,8 C 83 % 1027,8 hPa 0,0 mm 1,6 km/h (1 Bft) S-SW 202 0 min 0 UV-I 40 W/m 4,8 km/h (1 Bft)
05.11.2007 10:50 7,9 C 82 % 1027,7 hPa 0,0 mm 1,6 km/h (1 Bft) S-SW 202 0 min 0 UV-I 47 W/m 3,2 km/h (1 Bft)
05.11.2007 11:00 7,9 C 82 % 1027,6 hPa 0,0 mm 0,0 km/h (0 Bft) S-SW 202 0 min 0 UV-I 63 W/m 1,6 km/h (1 Bft)
05.11.2007 11:10 8,1 C 82 % 1027,5 hPa 0,0 mm 0,0 km/h (0 Bft) S-SW 202 0 min 0 UV-I 69 W/m 3,2 km/h (1 Bft)
05.11.2007 11:20 8,2 C 82 % 1027,5 hPa 0,0 mm 0,0 km/h (0 Bft) S-SW 202 0 min 0 UV-I 67 W/m 3,2 km/h (1 Bft)
05.11.2007 11:30 8,3 C 82 % 1027,4 hPa 0,0 mm 0,0 km/h (0 Bft) S-SW 202 0 min 0 UV-I 63 W/m 4,8 km/h (1 Bft)
05.11.2007 11:40 8,4 C 82 % 1027,3 hPa 0,0 mm 0,0 km/h (0 Bft) S-SW 202 0 min 0 UV-I 70 W/m 1,6 km/h (1 Bft)
05.11.2007 11:50 8,4 C 81 % 1027,2 hPa 0,0 mm 0,0 km/h (0 Bft) S-SW 202 0 min 0 UV-I 72 W/m 3,2 km/h (1 Bft)
05.11.2007 12:00 8,6 C 81 % 1027,0 hPa 0,0 mm 0,0 km/h (0 Bft) S-SW 202 0 min 0 UV-I 67 W/m 3,2 km/h (1 Bft)
05.11.2007 12:10 8,7 C 80 % 1026,9 hPa 0,0 mm 1,6 km/h (1 Bft) S-SW 202 0 min 0 UV-I 63 W/m 3,2 km/h (1 Bft)
05.11.2007 12:20 8,8 C 80 % 1026,7 hPa 0,0 mm 1,6 km/h (1 Bft) S-SW 202 0 min 0 UV-I 69 W/m 3,2 km/h (1 Bft)
05.11.2007 12:30 8,8 C 80 % 1026,6 hPa 0,0 mm 0,0 km/h (0 Bft) S-SW 202 0 min 0 UV-I 70 W/m 3,2 km/h (1 Bft)
05.11.2007 12:40 8,9 C 79 % 1026,6 hPa 0,0 mm 1,6 km/h (1 Bft) W-SW 247 0 min 0 UV-I 65 W/m 6,4 km/h (2 Bft)
05.11.2007 12:50 8,9 C 80 % 1026,4 hPa 0,0 mm 1,6 km/h (1 Bft) W-SW 247 0 min 0 UV-I 54 W/m 3,2 km/h (1 Bft)
05.11.2007 13:00 9,0 C 80 % 1026,2 hPa 0,0 mm 1,6 km/h (1 Bft) W-SW 247 0 min 0 UV-I 63 W/m 4,8 km/h (1 Bft)
05.11.2007 13:10 9,0 C 81 % 1026,1 hPa 0,0 mm 1,6 km/h (1 Bft) W-SW 247 0 min 0 UV-I 70 W/m 4,8 km/h (1 Bft)
05.11.2007 13:20 9,1 C 81 % 1025,9 hPa 0,0 mm 1,6 km/h (1 Bft) W-SW 247 0 min 1 UV-I 107 W/m 4,8 km/h (1 Bft)
05.11.2007 13:30 9,2 C 81 % 1025,8 hPa 0,0 mm 1,6 km/h (1 Bft) W-SW 247 0 min 1 UV-I 114 W/m 6,4 km/h (2 Bft)
05.11.2007 13:40 9,3 C 80 % 1025,6 hPa 0,0 mm 1,6 km/h (1 Bft) W-SW 247 0 min 1 UV-I 137 W/m 6,4 km/h (2 Bft)
05.11.2007 13:50 9,4 C 78 % 1025,5 hPa 0,0 mm 3,2 km/h (1 Bft) W-SW 247 0 min 1 UV-I 148 W/m 9,7 km/h (2 Bft)
05.11.2007 14:00 9,6 C 75 % 1025,3 hPa 0,0 mm 3,2 km/h (1 Bft) SW 225 10 min 1 UV-I 279 W/m 8,0 km/h (2 Bft)
05.11.2007 14:10 9,9 C 75 % 1025,1 hPa 0,0 mm 3,2 km/h (1 Bft) SW 225 0 min 1 UV-I 162 W/m 9,7 km/h (2 Bft)
05.11.2007 14:20 9,9 C 74 % 1025,0 hPa 0,0 mm 4,8 km/h (1 Bft) SW 225 10 min 1 UV-I 162 W/m 11,3 km/h (2 Bft)
05.11.2007 14:30 9,9 C 73 % 1024,8 hPa 0,0 mm 4,8 km/h (1 Bft) W-SW 247 0 min 1 UV-I 148 W/m 14,5 km/h (3 Bft)
05.11.2007 14:40 9,9 C 71 % 1024,6 hPa 0,0 mm 4,8 km/h (1 Bft) SW 225 0 min 1 UV-I 142 W/m 9,7 km/h (2 Bft)
05.11.2007 14:50 9,9 C 72 % 1024,4 hPa 0,0 mm 4,8 km/h (1 Bft) W-SW 247 10 min 1 UV-I 158 W/m 16,1 km/h (3 Bft)
05.11.2007 15:00 9,9 C 72 % 1024,3 hPa 0,0 mm 4,8 km/h (1 Bft) SW 225 10 min 0 UV-I 142 W/m 12,9 km/h (3 Bft)
05.11.2007 15:10 9,9 C 70 % 1024,3 hPa 0,0 mm 4,8 km/h (1 Bft) S-SW 202 0 min 0 UV-I 104 W/m 11,3 km/h (2 Bft)
05.11.2007 15:20 9,9 C 70 % 1024,3 hPa 0,0 mm 4,8 km/h (1 Bft) W 270 0 min 0 UV-I 65 W/m 12,9 km/h (3 Bft)
05.11.2007 15:30 9,9 C 71 % 1024,2 hPa 0,0 mm 3,2 km/h (1 Bft) S-SW 202 0 min 0 UV-I 44 W/m 8,0 km/h (2 Bft)
05.11.2007 15:40 9,9 C 72 % 1024,1 hPa 0,0 mm 1,6 km/h (1 Bft) SW 225 0 min 0 UV-I 33 W/m 6,4 km/h (2 Bft)
05.11.2007 15:50 9,8 C 72 % 1024,0 hPa 0,0 mm 1,6 km/h (1 Bft) W-SW 247 0 min 0 UV-I 16 W/m 9,7 km/h (2 Bft)
05.11.2007 16:00 9,8 C 72 % 1023,9 hPa 0,0 mm 1,6 km/h (1 Bft) SW 225 0 min 0 UV-I 14 W/m 4,8 km/h (1 Bft)
05.11.2007 16:10 9,7 C 72 % 1023,7 hPa 0,0 mm 1,6 km/h (1 Bft) SW 225 0 min 0 UV-I 9 W/m 4,8 km/h (1 Bft)
05.11.2007 16:20 9,6 C 73 % 1023,6 hPa 0,0 mm 1,6 km/h (1 Bft) S-SW 202 0 min 0 UV-I 5 W/m 4,8 km/h (1 Bft)
05.11.2007 16:30 9,6 C 73 % 1023,5 hPa 0,0 mm 1,6 km/h (1 Bft) SW 225 0 min 0 UV-I 0 W/m 6,4 km/h (2 Bft)
05.11.2007 16:40 9,5 C 73 % 1023,4 hPa 0,0 mm 1,6 km/h (1 Bft) SW 225 0 min 0 UV-I 0 W/m 6,4 km/h (2 Bft)
05.11.2007 16:50 9,4 C 74 % 1023,3 hPa 0,0 mm 1,6 km/h (1 Bft) SW 225 0 min 0 UV-I 0 W/m 4,8 km/h (1 Bft)
05.11.2007 17:00 9,3 C 73 % 1023,0 hPa 0,0 mm 3,2 km/h (1 Bft) SW 225 0 min 0 UV-I 0 W/m 8,0 km/h (2 Bft)
05.11.2007 17:10 9,2 C 73 % 1023,1 hPa 0,0 mm 1,6 km/h (1 Bft) S-SW 202 0 min 0 UV-I 0 W/m 6,4 km/h (2 Bft)
05.11.2007 17:20 9,2 C 74 % 1023,0 hPa 0,0 mm 1,6 km/h (1 Bft) S-SW 202 0 min 0 UV-I 0 W/m 6,4 km/h (2 Bft)
05.11.2007 17:30 9,1 C 73 % 1023,0 hPa 0,0 mm 1,6 km/h (1 Bft) SW 225 0 min 0 UV-I 0 W/m 6,4 km/h (2 Bft)
05.11.2007 17:40 9,1 C 74 % 1023,0 hPa 0,0 mm 3,2 km/h (1 Bft) S-SW 202 0 min 0 UV-I 0 W/m 9,7 km/h (2 Bft)
05.11.2007 17:50 9,0 C 74 % 1023,0 hPa 0,0 mm 3,2 km/h (1 Bft) SW 225 0 min 0 UV-I 0 W/m 9,7 km/h (2 Bft)
05.11.2007 18:00 9,0 C 74 % 1022,7 hPa 0,0 mm 3,2 km/h (1 Bft) SW 225 0 min 0 UV-I 0 W/m 9,7 km/h (2 Bft)
05.11.2007 18:10 8,9 C 75 % 1022,4 hPa 0,0 mm 4,8 km/h (1 Bft) SW 225 0 min 0 UV-I 0 W/m 11,3 km/h (2 Bft)
05.11.2007 18:20 8,9 C 75 % 1022,1 hPa 0,0 mm 3,2 km/h (1 Bft) S-SW 202 0 min 0 UV-I 0 W/m 14,5 km/h (3 Bft)
05.11.2007 18:30 8,9 C 74 % 1021,9 hPa 0,0 mm 4,8 km/h (1 Bft) S-SW 202 0 min 0 UV-I 0 W/m 14,5 km/h (3 Bft)
05.11.2007 18:40 8,8 C 75 % 1021,8 hPa 0,0 mm 4,8 km/h (1 Bft) SW 225 0 min 0 UV-I 0 W/m 11,3 km/h (2 Bft)
05.11.2007 18:50 8,8 C 75 % 1021,5 hPa 0,0 mm 4,8 km/h (1 Bft) S-SW 202 0 min 0 UV-I 0 W/m 9,7 km/h (2 Bft)
05.11.2007 19:00 8,8 C 74 % 1021,6 hPa 0,0 mm 4,8 km/h (1 Bft) S-SW 202 0 min 0 UV-I 0 W/m 11,3 km/h (2 Bft)
05.11.2007 19:10 8,8 C 74 % 1021,4 hPa 0,0 mm 4,8 km/h (1 Bft) SW 225 0 min 0 UV-I 0 W/m 11,3 km/h (2 Bft)
05.11.2007 19:20 8,8 C 74 % 1021,3 hPa 0,0 mm 4,8 km/h (1 Bft) SW 225 0 min 0 UV-I 0 W/m 14,5 km/h (3 Bft)
05.11.2007 19:30 8,8 C 74 % 1021,1 hPa 0,0 mm 6,4 km/h (2 Bft) S-SW 202 0 min 0 UV-I 0 W/m 17,7 km/h (3 Bft)
05.11.2007 19:40 8,8 C 74 % 1021,1 hPa 0,0 mm 4,8 km/h (1 Bft) S-SW 202 0 min 0 UV-I 0 W/m 14,5 km/h (3 Bft)
05.11.2007 19:50 8,8 C 73 % 1020,9 hPa 0,0 mm 4,8 km/h (1 Bft) SW 225 0 min 0 UV-I 0 W/m 14,5 km/h (3 Bft)
05.11.2007 20:00 8,8 C 73 % 1020,7 hPa 0,0 mm 4,8 km/h (1 Bft) S-SW 202 0 min 0 UV-I 0 W/m 14,5 km/h (3 Bft)
05.11.2007 20:10 8,8 C 73 % 1020,6 hPa 0,0 mm 6,4 km/h (2 Bft) S-SW 202 0 min 0 UV-I 0 W/m 16,1 km/h (3 Bft)
05.11.2007 20:20 8,8 C 73 % 1020,5 hPa 0,0 mm 4,8 km/h (1 Bft) SW 225 0 min 0 UV-I 0 W/m 19,3 km/h (3 Bft)
05.11.2007 20:30 8,8 C 73 % 1020,4 hPa 0,0 mm 4,8 km/h (1 Bft) SW 225 0 min 0 UV-I 0 W/m 19,3 km/h (3 Bft)
05.11.2007 20:40 8,8 C 73 % 1020,1 hPa 0,0 mm 4,8 km/h (1 Bft) SW 225 0 min 0 UV-I 0 W/m 11,3 km/h (2 Bft)
05.11.2007 20:50 8,8 C 73 % 1019,9 hPa 0,0 mm 4,8 km/h (1 Bft) SW 225 0 min 0 UV-I 0 W/m 14,5 km/h (3 Bft)
05.11.2007 21:00 8,8 C 74 % 1019,6 hPa 0,0 mm 4,8 km/h (1 Bft) SW 225 0 min 0 UV-I 0 W/m 14,5 km/h (3 Bft)
05.11.2007 21:10 8,8 C 74 % 1019,2 hPa 0,0 mm 4,8 km/h (1 Bft) SW 225 0 min 0 UV-I 0 W/m 11,3 km/h (2 Bft)
05.11.2007 21:20 8,8 C 74 % 1019,0 hPa 0,0 mm 4,8 km/h (1 Bft) S-SW 202 0 min 0 UV-I 0 W/m 14,5 km/h (3 Bft)
05.11.2007 21:30 8,8 C 74 % 1018,9 hPa 0,0 mm 6,4 km/h (2 Bft) SW 225 0 min 0 UV-I 0 W/m 17,7 km/h (3 Bft)
05.11.2007 21:40 8,8 C 75 % 1018,7 hPa 0,0 mm 6,4 km/h (2 Bft) S-SW 202 0 min 0 UV-I 0 W/m 20,9 km/h (4 Bft)
05.11.2007 21:50 8,8 C 76 % 1018,7 hPa 0,0 mm 6,4 km/h (2 Bft) SW 225 0 min 0 UV-I 0 W/m 16,1 km/h (3 Bft)
05.11.2007 22:00 8,7 C 77 % 1018,4 hPa 0,3 mm 6,4 km/h (2 Bft) SW 225 0 min 0 UV-I 0 W/m 11,3 km/h (2 Bft)
05.11.2007 22:10 8,5 C 78 % 1018,2 hPa 0,0 mm 6,4 km/h (2 Bft) S-SW 202 0 min 0 UV-I 0 W/m 19,3 km/h (3 Bft)
05.11.2007 22:20 8,4 C 79 % 1018,0 hPa 0,0 mm 6,4 km/h (2 Bft) SW 225 0 min 0 UV-I 0 W/m 20,9 km/h (4 Bft)
05.11.2007 22:30 8,3 C 79 % 1017,8 hPa 0,0 mm 6,4 km/h (2 Bft) W-SW 247 0 min 0 UV-I 0 W/m 16,1 km/h (3 Bft)
05.11.2007 22:40 8,3 C 80 % 1017,6 hPa 0,0 mm 6,4 km/h (2 Bft) SW 225 0 min 0 UV-I 0 W/m 17,7 km/h (3 Bft)
05.11.2007 22:50 8,3 C 80 % 1017,3 hPa 0,0 mm 8,0 km/h (2 Bft) SW 225 0 min 0 UV-I 0 W/m 19,3 km/h (3 Bft)
05.11.2007 23:00 8,3 C 81 % 1017,1 hPa 0,3 mm 6,4 km/h (2 Bft) W-SW 247 0 min 0 UV-I 0 W/m 14,5 km/h (3 Bft)
05.11.2007 23:10 8,2 C 83 % 1017,0 hPa 0,0 mm 8,0 km/h (2 Bft) SW 225 0 min 0 UV-I 0 W/m 20,9 km/h (4 Bft)
05.11.2007 23:20 8,1 C 84 % 1017,0 hPa 0,0 mm 6,4 km/h (2 Bft) W-SW 247 0 min 0 UV-I 0 W/m 16,1 km/h (3 Bft)
05.11.2007 23:30 8,1 C 85 % 1017,0 hPa 0,3 mm 8,0 km/h (2 Bft) W-SW 247 0 min 0 UV-I 0 W/m 19,3 km/h (3 Bft)
05.11.2007 23:40 7,9 C 86 % 1016,9 hPa 0,3 mm 8,0 km/h (2 Bft) W-SW 247 0 min 0 UV-I 0 W/m 19,3 km/h (3 Bft)
05.11.2007 23:50 7,8 C 88 % 1016,9 hPa 0,5 mm 8,0 km/h (2 Bft) W-SW 247 0 min 0 UV-I 0 W/m 27,4 km/h (4 Bft)
_ Min-Zeit 08:00 15:10 23:40 - 00:00 - - - - - 00:00
Minimum _ 7,0 C 70 % 1016,9 hPa - 0,0 km/h (0 Bft) - - - - - 0,0 km/h (0 Bft)
_ Max-Zeit 14:20 02:50 00:10 23:50 22:50 - - 14:00 14:00 14:00 23:50
Maximum _ 10,0 C 91 % 1028,2 hPa 0,5 mm 8,0 km/h
SW (2 Bft)
- - 10 min 1 UV-I 279 W/m 27,4 km/h
W (4 Bft)
Durchschnitt _ 8,2 C 83 % 1025,0 hPa #1,5 mm 2,1 km/h (1 Bft) SW - #40 min. 1 UV-I 68 W/m 6,6 km/h (2 Bft)